createdAt,value
2023-03-01T00:03:45.621Z,29.83
2023-03-01T00:08:51.481Z,26.90
2023-03-01T00:13:59.321Z,28.27
2023-03-01T00:19:04.815Z,32.90
2023-03-01T00:24:11.589Z,19.63
2023-03-01T00:29:16.824Z,16.37
2023-03-01T00:34:22.205Z,21.53
2023-03-01T00:39:27.318Z,23.13
2023-03-01T00:44:32.465Z,21.33
2023-03-01T00:49:38.127Z,25.83
2023-03-01T00:54:43.323Z,14.63
2023-03-01T00:59:49.132Z,21.47
2023-03-01T01:04:54.428Z,24.20
2023-03-01T01:09:59.627Z,10.80
2023-03-01T01:15:05.006Z,17.70
2023-03-01T01:20:11.083Z,26.23
2023-03-01T01:25:16.253Z,19.30
2023-03-01T01:30:21.492Z,22.17
2023-03-01T01:35:26.891Z,30.13
2023-03-01T01:40:32.204Z,19.13
2023-03-01T01:45:38.649Z,25.07
2023-03-01T01:50:46.496Z,33.03
2023-03-01T01:55:54.757Z,27.17
2023-03-01T02:01:01.816Z,34.93
2023-03-01T02:06:10.038Z,25.67
2023-03-01T02:11:16.217Z,15.67
2023-03-01T02:16:22.145Z,11.73
2023-03-01T02:21:42.612Z,23.90
2023-03-01T02:26:54.094Z,10.43
2023-03-01T02:32:02.518Z,20.50
2023-03-01T02:37:13.736Z,10.70
2023-03-01T02:42:22.013Z,30.57
2023-03-01T02:47:27.208Z,20.00
2023-03-01T02:52:42.111Z,20.43
2023-03-01T02:57:52.656Z,12.10
2023-03-01T03:02:59.189Z,18.23
2023-03-01T03:08:05.435Z,20.17
2023-03-01T03:13:13.352Z,26.10
2023-03-01T03:18:19.950Z,19.80
2023-03-01T03:23:25.699Z,32.33
2023-03-01T03:28:32.005Z,14.57
2023-03-01T03:33:37.978Z,12.53
2023-03-01T03:38:43.291Z,13.20
2023-03-01T03:43:50.361Z,22.27
2023-03-01T03:48:56.940Z,9.77
2023-03-01T03:54:02.534Z,18.80
2023-03-01T03:59:07.742Z,20.17
2023-03-01T04:04:13.536Z,13.83
2023-03-01T04:09:18.978Z,10.93
2023-03-01T04:14:24.227Z,17.27
2023-03-01T04:19:29.530Z,20.97
2023-03-01T04:24:35.458Z,14.47
2023-03-01T04:29:40.667Z,30.97
2023-03-01T04:34:45.899Z,23.67
2023-03-01T04:39:51.049Z,22.63
2023-03-01T04:44:56.136Z,10.23
2023-03-01T04:50:04.932Z,11.43
2023-03-01T04:55:11.236Z,8.27
2023-03-01T05:00:22.912Z,17.30
2023-03-01T05:05:31.361Z,16.03
2023-03-01T05:10:39.852Z,15.20
2023-03-01T05:15:45.066Z,13.27
2023-03-01T05:20:50.330Z,7.80
2023-03-01T05:25:56.278Z,9.37
2023-03-01T05:31:02.490Z,6.90
2023-03-01T05:36:11.066Z,15.90
2023-03-01T05:41:18.404Z,16.13
2023-03-01T05:46:25.666Z,47.87
2023-03-01T05:51:31.154Z,19.60
2023-03-01T05:56:38.044Z,14.23
2023-03-01T06:01:43.593Z,17.60
2023-03-01T06:06:49.504Z,22.37
2023-03-01T06:11:54.898Z,17.33
2023-03-01T06:17:00.372Z,17.30
2023-03-01T06:22:05.627Z,14.80
2023-03-01T06:27:12.317Z,14.10
2023-03-01T06:32:17.962Z,27.73
2023-03-01T06:37:23.151Z,16.07
2023-03-01T06:42:28.324Z,18.47
2023-03-01T06:47:34.564Z,27.27
2023-03-01T06:52:40.280Z,25.57
2023-03-01T06:57:45.818Z,37.10
2023-03-01T07:02:51.161Z,16.97
2023-03-01T07:07:58.423Z,29.60
2023-03-01T07:13:03.649Z,16.93
2023-03-01T07:18:08.823Z,16.37
2023-03-01T07:23:14.330Z,12.27
2023-03-01T07:28:19.658Z,19.33
2023-03-01T07:33:24.879Z,17.57
2023-03-01T07:38:31.345Z,14.30
2023-03-01T07:43:36.744Z,16.20
2023-03-01T07:48:44.022Z,11.00
2023-03-01T07:53:50.845Z,15.83
2023-03-01T07:58:56.221Z,11.30
2023-03-01T08:04:01.548Z,11.07
2023-03-01T08:09:07.465Z,9.20
2023-03-01T08:14:12.882Z,15.53
2023-03-01T08:19:18.265Z,20.33
2023-03-01T08:24:24.128Z,12.13
2023-03-01T08:29:29.970Z,15.27
2023-03-01T08:34:36.713Z,12.97
2023-03-01T08:39:42.000Z,12.67
2023-03-01T08:44:47.333Z,19.87
2023-03-01T08:49:53.932Z,22.93
2023-03-01T08:54:59.164Z,19.37
2023-03-01T09:00:07.621Z,20.47
2023-03-01T09:05:12.838Z,17.90
2023-03-01T09:10:20.484Z,25.93
2023-03-01T09:15:34.209Z,16.50
2023-03-01T09:20:41.086Z,16.90
2023-03-01T09:25:47.271Z,13.17
2023-03-01T09:30:56.965Z,18.73
2023-03-01T09:36:09.025Z,12.63
2023-03-01T09:41:26.537Z,18.70
2023-03-01T09:46:36.489Z,16.97
2023-03-01T09:51:46.390Z,20.50
2023-03-01T09:57:19.940Z,17.90
2023-03-01T10:02:36.741Z,17.47
2023-03-01T10:07:47.703Z,21.77
2023-03-01T10:12:56.510Z,24.10
2023-03-01T10:18:10.519Z,18.77
2023-03-01T10:23:24.854Z,16.40
2023-03-01T10:28:49.505Z,16.43
2023-03-01T10:33:56.238Z,15.43
2023-03-01T10:39:05.674Z,15.47
2023-03-01T10:44:13.943Z,17.57
2023-03-01T10:49:26.385Z,21.07
2023-03-01T10:54:35.376Z,18.40
2023-03-01T10:59:41.592Z,13.13
2023-03-01T11:05:10.406Z,10.70
2023-03-01T11:10:22.056Z,19.27
2023-03-01T11:15:30.967Z,11.87
2023-03-01T11:20:39.638Z,19.60
2023-03-01T11:25:48.089Z,15.07
2023-03-01T11:31:08.557Z,9.20
2023-03-01T11:36:28.336Z,11.37
2023-03-01T11:41:37.876Z,11.70
2023-03-01T11:46:55.105Z,14.57
2023-03-01T11:52:21.342Z,12.67
2023-03-01T11:57:43.495Z,10.07
2023-03-01T12:02:59.740Z,14.53
2023-03-01T12:08:14.611Z,11.37
2023-03-01T12:13:39.625Z,9.77
2023-03-01T12:18:48.175Z,8.87
2023-03-01T12:24:08.376Z,12.67
2023-03-01T12:29:25.246Z,13.77
2023-03-01T12:34:56.997Z,12.60
2023-03-01T12:40:13.910Z,12.37
2023-03-01T12:45:38.848Z,14.33
2023-03-01T12:50:46.656Z,19.67
2023-03-01T12:55:56.250Z,12.43
2023-03-01T13:01:33.015Z,11.10
2023-03-01T13:06:47.707Z,8.47
2023-03-01T13:11:53.357Z,12.50
2023-03-01T13:16:58.524Z,10.87
2023-03-01T13:22:06.702Z,22.37
2023-03-01T13:27:13.699Z,14.87
2023-03-01T13:32:47.992Z,16.17
2023-03-01T13:37:40.452Z,13.87
2023-03-01T13:42:59.415Z,12.70
2023-03-01T13:48:18.936Z,10.37
2023-03-01T13:53:27.645Z,14.90
2023-03-01T13:59:06.718Z,18.73
2023-03-01T14:04:28.117Z,13.57
2023-03-01T14:09:37.202Z,10.03
2023-03-01T14:15:18.181Z,21.47
2023-03-01T14:20:26.599Z,31.93
2023-03-01T14:25:34.969Z,11.20
2023-03-01T14:30:46.044Z,21.77
2023-03-01T14:36:03.271Z,12.53
2023-03-01T14:41:21.437Z,16.27
2023-03-01T14:46:30.683Z,8.43
2023-03-01T14:51:44.657Z,13.03
2023-03-01T14:56:58.692Z,44.87
2023-03-01T15:02:03.967Z,75.73
2023-03-01T15:07:13.127Z,43.93
2023-03-01T15:12:31.691Z,24.30
2023-03-01T15:17:39.630Z,12.70
2023-03-01T15:22:49.070Z,12.87
2023-03-01T15:27:56.472Z,50.00
2023-03-01T15:33:29.274Z,52.03
2023-03-01T15:38:44.490Z,31.83
2023-03-01T15:43:50.897Z,112.90
2023-03-01T15:48:59.109Z,36.40
2023-03-01T15:54:07.403Z,10.00
2023-03-01T15:59:15.250Z,12.00
2023-03-01T16:04:24.430Z,422.33
2023-03-01T16:09:29.693Z,200.43
2023-03-01T16:14:34.836Z,30.60
2023-03-01T16:19:42.256Z,26.17
2023-03-01T16:24:47.471Z,32.70
2023-03-01T16:29:52.974Z,28.43
2023-03-01T16:34:58.209Z,113.17
2023-03-01T16:40:05.530Z,66.20
2023-03-01T16:45:22.709Z,89.57
2023-03-01T16:50:18.589Z,90.37
2023-03-01T16:55:24.378Z,64.70
2023-03-01T17:00:29.816Z,62.90
2023-03-01T17:05:35.087Z,36.77
2023-03-01T17:10:40.334Z,32.80
2023-03-01T17:15:45.516Z,78.20
2023-03-01T17:20:50.695Z,86.70
2023-03-01T17:25:56.879Z,88.23
2023-03-01T17:31:03.996Z,148.93
2023-03-01T17:36:09.479Z,166.60
2023-03-01T17:41:16.427Z,110.83
2023-03-01T17:46:22.251Z,65.40
2023-03-01T17:51:27.467Z,70.67
2023-03-01T17:56:34.218Z,41.70
2023-03-01T18:01:42.814Z,31.90
2023-03-01T18:06:48.401Z,38.53
2023-03-01T18:11:54.292Z,40.97
2023-03-01T18:16:59.381Z,53.27
2023-03-01T18:22:04.740Z,44.30
2023-03-01T18:27:11.206Z,73.93
2023-03-01T18:32:16.507Z,82.27
2023-03-01T18:37:21.939Z,83.07
2023-03-01T18:42:29.154Z,122.27
2023-03-01T18:47:34.284Z,89.07
2023-03-01T18:52:39.394Z,87.50
2023-03-01T18:57:44.747Z,96.17
2023-03-01T19:02:50.063Z,121.87
2023-03-01T19:07:55.845Z,82.63
2023-03-01T19:13:01.129Z,76.77
2023-03-01T19:18:06.390Z,99.83
2023-03-01T19:23:13.500Z,90.10
2023-03-01T19:28:18.238Z,82.43
2023-03-01T19:33:24.362Z,79.30
2023-03-01T19:38:31.678Z,52.60
2023-03-01T19:43:36.930Z,35.73
2023-03-01T19:48:44.094Z,32.93
2023-03-01T19:53:49.499Z,40.70
2023-03-01T19:58:56.454Z,37.97
2023-03-01T20:04:06.279Z,39.97
2023-03-01T20:09:21.075Z,34.47
2023-03-01T20:14:23.226Z,39.50
2023-03-01T20:19:26.972Z,57.63
2023-03-01T20:24:32.265Z,39.73
2023-03-01T20:29:37.833Z,44.23
2023-03-01T20:34:43.088Z,80.63
2023-03-01T20:39:48.207Z,70.50
2023-03-01T20:44:53.409Z,76.10
2023-03-01T20:50:00.222Z,102.70
2023-03-01T20:55:05.655Z,104.53
2023-03-01T21:00:11.674Z,64.40
2023-03-01T21:05:16.997Z,71.87
2023-03-01T21:10:22.319Z,53.80
2023-03-01T21:15:29.636Z,71.77
2023-03-01T21:20:34.457Z,65.07
2023-03-01T21:25:39.696Z,61.23
2023-03-01T21:30:44.768Z,69.70
2023-03-01T21:35:50.525Z,84.60
2023-03-01T21:40:55.718Z,90.07
2023-03-01T21:46:10.762Z,63.50
2023-03-01T21:51:17.913Z,65.83
2023-03-01T21:56:25.926Z,48.20
2023-03-01T22:01:31.178Z,81.13
2023-03-01T22:06:41.095Z,102.70
2023-03-01T22:11:49.726Z,118.43
2023-03-01T22:16:54.991Z,102.77
2023-03-01T22:22:00.243Z,95.83
2023-03-01T22:27:05.461Z,109.40
2023-03-01T22:32:10.727Z,116.13
2023-03-01T22:37:16.459Z,100.30
2023-03-01T22:42:21.778Z,94.93
2023-03-01T22:47:27.420Z,120.43
2023-03-01T22:52:32.690Z,91.80
2023-03-01T22:57:37.812Z,83.73
2023-03-01T23:02:43.153Z,72.27
2023-03-01T23:07:49.037Z,99.83
2023-03-01T23:12:57.444Z,73.77
2023-03-01T23:18:02.821Z,43.00
2023-03-01T23:23:08.010Z,52.13
2023-03-01T23:28:13.163Z,53.33
2023-03-01T23:33:18.223Z,45.63
2023-03-01T23:38:23.672Z,41.60
2023-03-01T23:43:28.868Z,40.47
2023-03-01T23:48:35.057Z,63.23
2023-03-01T23:53:43.188Z,47.90
2023-03-01T23:58:50.052Z,41.40
